Effective Sunday, March 17, 2024, the National Weather Service National Data Buoy Center will discontinue its Dial-A-Buoy Interactive Voice Response system. For more information, see Service Change Notice 24-06 (PDF).

Station PAUA2 - ST PAUL MXAK, AK Image indicating link to RSS feed of recent meteorological observations for station PAUA2


Conditions at PAUA2 as of
2145 GMT on 02/24/2024:
     

Click on the graph icon in the table below to see a time series plot of the last five days of that observation.

5-day plot - Wind Direction Wind Direction (WDIR):WNW ( 300 deg true )
5-day plot - Wind Speed Wind Speed (WSPD): 20.0 kts
5-day plot - Wind Gust Wind Gust (GST): 27.0 kts
5-day plot - Air Temperature Air Temperature (ATMP): 30.0 °F
5-day plot - Dew Point Dew Point (DEWP): 27.3 °F
5-day plot - Wind Chill Wind Chill (CHILL): 16.5 °F
5-day plot - Wind Speed at 10 Meters Wind Speed at 10 meters (WSPD10M): 17.5 kts
5-day plot - Wind Speed at 20 Meters Wind Speed at 20 meters (WSPD20M): 19.4 kts
5-day plot -  Wind Speed, Wind Gust and Atmospheric Pressure Combined plot of Wind Speed, Gust, and Air Pressure
Previous observations
TIME
(GMT)
5-day plot - Wind Direction
WDIR
 
5-day plot - Wind Speed
WSPD
kts
5-day plot - Wind Gust
GST
kts
5-day plot - Wave Height
WVHT
ft
5-day plot - Dominant Wave Period
DPD
sec
5-day plot - Average Wave Period
APD
sec
5-day plot - Mean Wave Direction
MWD
 
5-day plot - Atmospheric Pressure
PRES
in
5-day plot - Pressure Tendency
PTDY
in
5-day plot - Air Temperature
ATMP
°F
5-day plot - Water Temperature
WTMP
°F
5-day plot - Dew Point
DEWP
°F
5-day plot - Salinity
SAL
psu
5-day plot - Visibility
VIS
nmi
5-day plot - Tide (above MLLW)
TIDE
ft
2024-02-24 2135WNW 20.0 28.0------ 32.4- 27.5---
2024-02-24 2125 W 13.0 19.0------ 32.5- 25.7---
2024-02-24 2115 W 15.0 20.0------ 32.4- 25.7---
2024-02-24 2105 W 15.0 22.0------ 32.2- 26.4---
2024-02-24 2055 W 15.0 20.0------ 32.0- 27.1---
2024-02-24 2045 W 15.0 20.0------ 31.8- 26.4---
2024-02-24 2035 W 15.0 21.0------ 31.8- 25.9---
2024-02-24 2025 W 14.0 20.0------ 31.5- 26.1---
2024-02-24 2015 W 15.9 21.0------ 31.3- 26.4---
2024-02-24 2006 W 17.1 22.0------ 31.5- 24.8---
2024-02-24 1956 W 17.1 22.9------ 31.6- 26.1---
2024-02-24 1937 W 13.0 18.1------ 31.1- 26.4---
2024-02-24 1927 W 14.0 19.0------ 31.3- 26.1---
2024-02-24 1917 W 15.0 20.0------ 31.3- 26.8---
2024-02-24 1907 W 15.9 20.0------ 31.3- 27.0---
2024-02-24 1857WNW 15.9 21.0------ 31.1- 27.5---
2024-02-24 1848WNW 17.1 24.1------ 31.5- 27.0---
2024-02-24 1838 W 17.1 22.9------ 31.5- 24.3---
2024-02-24 1830 W 17.1 22.9------ 31.5- 24.3---
2024-02-24 1820 W 15.9 22.0------ 31.1- 24.1---
2024-02-24 1811 W 18.1 24.1------ 30.9- 25.7---
2024-02-24 1800 W 20.0 26.0------ 31.1- 26.4---
2024-02-24 1751 W 18.1 27.0------ 31.1- 25.7---
2024-02-24 1740 W 11.1 19.0------ 30.0- 27.9---
2024-02-24 1731 W 11.1 14.0------ 30.0- 27.5---
2024-02-24 1724 W 9.9 14.0------ 29.3- 28.4---
2024-02-24 1716 W 7.0 9.9------ 28.9- 28.8---
2024-02-24 1704 W 8.0 11.1------ 28.9- 28.6---
2024-02-24 1654WNW 8.0 11.1------ 28.8- 28.6---
2024-02-24 1647WNW 8.9 12.0------ 28.8- 28.8---
2024-02-24 1637WNW 9.9 13.0------ 28.6- 28.6---
2024-02-24 1626 NW 8.0 11.1------ 27.9- 27.9---
2024-02-24 1614 NW 8.0 12.0------ 28.0- 28.0---
2024-02-24 1559 NW 11.1 15.0------ 27.9- 27.9---
2024-02-24 1547 NW 12.0 15.9------ 27.9- 27.9---
2024-02-24 1535 NW 17.1 22.9------ 28.0- 28.0---
2024-02-24 1525WNW 22.0 26.0------ 28.4- 28.4---
2024-02-24 1515 NW 18.1 26.0------ 29.1- 29.1---
2024-02-24 1505WNW 14.0 22.9------ 29.7- 29.5---
2024-02-24 1455 W 8.9 13.0------ 29.5- 28.9---
2024-02-24 1445WNW 9.9 13.0------ 29.3- 28.8---
2024-02-24 1435WNW 8.9 12.0------ 29.7- 29.1---
2024-02-24 1425 W 8.0 12.0------ 29.7- 28.8---
2024-02-24 1415 W 11.1 15.0------ 29.5- 28.4---
2024-02-24 1405 W 11.1 15.9------ 29.7- 28.4---
2024-02-24 1355 W 9.9 15.0------ 29.3- 28.8---
2024-02-24 1345 W 11.1 17.1------ 29.1- 29.1---
2024-02-24 1335 W 12.0 18.1------ 29.1- 28.9---
2024-02-24 1325 W 11.1 18.1------ 28.4- 28.4---
2024-02-24 1315 W 9.9 14.0------ 28.6- 28.6---
2024-02-24 1305 W 11.1 15.9------ 28.4- 28.4---
2024-02-24 1255 W 14.0 18.1------ 28.6- 28.6---
2024-02-24 1245 W 15.0 24.1------ 28.8- 28.8---
2024-02-24 1235 W 14.0 20.0------ 29.1- 29.1---
2024-02-24 1225 W 14.0 22.0------ 29.5- 29.5---
2024-02-24 1215 W 14.0 21.0------ 29.7- 28.9---
2024-02-24 1205 W 15.0 21.0------ 29.5- 28.4---
2024-02-24 1155 W 15.9 22.0------ 29.7- 28.4---
2024-02-24 1145 W 15.0 20.0------ 29.1- 28.4---
2024-02-24 1135 W 15.0 20.0------ 28.9- 28.6---
2024-02-24 1126 W 17.1 22.9------ 28.8- 28.8---
2024-02-24 1118 W 20.0 28.0------ 28.9- 28.9---
2024-02-24 1109 W 21.0 28.9------ 29.1- 29.1---
2024-02-24 1057 W 21.0 28.9------ 29.3- 29.3---
2024-02-24 1048 W 17.1 25.1------ 29.7- 29.7---
2024-02-24 1038 W 15.9 22.9------ 29.1- 29.1---
2024-02-24 1029 W 20.0 28.9------ 29.1- 29.1---
2024-02-24 1021 W 20.0 28.9------ 29.1- 29.1---
2024-02-24 1011 W 22.0 29.9------ 29.1- 29.1---
2024-02-24 0958 W 19.0 28.0------ 30.2- 30.2---
2024-02-24 0946WNW 17.1 25.1------ 29.7- 29.7---
2024-02-24 0935 NW 15.9 19.0------ 29.3- 29.3---
2024-02-24 0925 W 17.1 22.9------ 29.1- 29.1---
2024-02-24 0916 W 21.0 32.1------ 28.8- 28.8---
2024-02-24 0905 W 24.1 36.9------ 28.8- 28.8---
2024-02-24 0855 W 27.0 38.1------ 28.8- 28.8---
2024-02-24 0845 W 22.9 35.0------ 28.9- 28.9---
2024-02-24 0835 W 25.1 35.9------ 29.5- 29.5---
2024-02-24 0825 W 25.1 32.1------ 29.8- 29.8---
2024-02-24 0816 W 22.9 32.1------ 29.8- 29.8---
2024-02-24 0806 W 26.0 38.1------ 29.5- 29.5---
2024-02-24 0756 W 27.0 39.0------ 29.5- 29.5---
2024-02-24 0747 W 31.1 46.0------ 28.9- 28.9---
2024-02-24 0736 W 28.9 44.1------ 29.8- 29.3---
2024-02-24 0727 W 29.9 44.1------ 29.8- 28.2---
2024-02-24 0717 W 26.0 36.9------ 29.8- 28.6---
2024-02-24 0708 W 28.0 44.1------ 29.8- 28.4---
2024-02-24 0657 W 28.0 42.0------ 30.4- 27.7---
2024-02-24 0648 W 22.9 34.0------ 31.6- 23.5---
2024-02-24 0639 W 28.0 42.0------ 31.5- 24.4---
2024-02-24 0631 W 28.0 42.0------ 31.5- 24.4---
2024-02-24 0622 W 22.0 34.0------ 30.4- 27.0---
2024-02-24 0612 W 24.1 35.0------ 30.7- 26.2---
2024-02-24 0601 W 26.0 34.0------ 30.6- 25.9---
2024-02-24 0551 W 27.0 36.9------ 30.4- 25.7---
2024-02-24 0542 W 28.0 39.0------ 29.7- 26.8---
2024-02-24 0534 W 26.0 41.0------ 31.3- 27.7---
2024-02-24 0526 W 22.9 35.0------ 31.3- 27.1---
2024-02-24 0517 W 22.9 38.1------ 31.6- 27.0---
2024-02-24 0502 W 24.1 35.0------ 32.0- 22.6---
2024-02-24 0454 W 24.1 35.0------ 32.0- 23.0---
2024-02-24 0447 W 27.0 40.0------ 32.0- 22.1---
2024-02-24 0437 W 27.0 39.0------ 32.2- 22.3---
2024-02-24 0427 W 22.9 36.9------ 32.4- 24.6---
2024-02-24 0417 W 22.9 35.9------ 32.2- 23.5---
2024-02-24 0359WSW 24.1 36.9------ 32.0- 24.6---
2024-02-24 0346 W 25.1 38.1------ 32.0- 24.8---
2024-02-24 0335WSW 24.1 35.9------ 32.2- 25.5---
2024-02-24 0325 W 24.1 35.0------ 32.5- 23.2---
2024-02-24 0315 W 25.1 36.9------ 32.9- 23.4---
2024-02-24 0305 W 26.0 36.9------ 32.5- 21.9---
2024-02-24 0255 W 21.0 33.0------ 32.0- 27.0---
2024-02-24 0245 W 22.0 32.1------ 31.6- 27.9---
2024-02-24 0235 W 27.0 39.0------ 30.9- 28.4---
2024-02-24 0225 W 25.1 36.9------ 31.8- 28.9---
2024-02-24 0215 W 22.9 33.0------ 32.2- 29.3---
2024-02-24 0205 W 26.0 38.1------ 33.3- 24.4---
2024-02-24 0155 W 26.0 36.9------ 33.4- 23.7---
2024-02-24 0145 W 28.9 42.9------ 33.3- 23.5---
2024-02-24 0135 W 28.0 41.0------ 33.4- 24.8---
2024-02-24 0125WSW 26.0 44.1------ 33.4- 25.5---
2024-02-24 0115 W 28.0 41.0------ 33.3- 23.5---
2024-02-24 0105 W 28.0 42.0------ 33.3- 24.8---
2024-02-24 0055 W 27.0 42.0------ 33.1- 25.5---
2024-02-24 0045 W 25.1 35.9------ 32.4- 25.7---
2024-02-24 0035 W 26.0 39.0------ 31.8- 26.8---
2024-02-24 0025 W 28.0 44.1------ 32.4- 27.1---
2024-02-24 0015 W 24.1 38.1------ 33.3- 25.7---
2024-02-23 2355WSW 27.0 40.0------ 33.3- 23.4---
2024-02-23 2345WSW 27.0 41.0------ 33.4- 23.7---
2024-02-23 2336WSW 28.0 40.0------ 33.3- 22.6---
2024-02-23 2327WSW 25.1 35.9------ 32.9- 25.2---
2024-02-23 2319WSW 25.1 38.1------ 31.8- 26.1---
2024-02-23 2312WSW 25.1 38.1------ 31.8- 26.1---
2024-02-23 2258 W 27.0 44.1------ 31.1- 26.1---
2024-02-23 2248WSW 24.1 38.1------ 31.5- 27.0---
2024-02-23 2240WSW 24.1 38.1------ 31.5- 27.0---
2024-02-23 2230WSW 26.0 39.0------ 32.4- 25.5---
2024-02-23 2223 W 22.0 34.0------ 33.1- 26.4---
2024-02-23 2212WSW 22.9 36.9------ 33.3- 24.4---
2024-02-23 2158WSW 24.1 35.0------ 33.1- 26.1---